createdAt,value
2022-11-27T00:01:24.011Z,10.1
2022-11-27T00:07:44.633Z,10.1
2022-11-27T00:13:28.915Z,10
2022-11-27T00:19:30.698Z,10
2022-11-27T00:25:05.510Z,10
2022-11-27T00:31:26.965Z,10.1
2022-11-27T00:37:03.519Z,10.1
2022-11-27T00:42:59.868Z,10
2022-11-27T00:49:17.246Z,10
2022-11-27T00:54:49.623Z,10
2022-11-27T01:00:24.767Z,10
2022-11-27T01:06:03.270Z,10
2022-11-27T01:12:02.047Z,9.9
2022-11-27T01:17:37.645Z,9.9
2022-11-27T01:23:27.484Z,9.9
2022-11-27T01:29:03.607Z,9.9
2022-11-27T01:35:00.136Z,9.9
2022-11-27T01:40:44.502Z,9.9
2022-11-27T01:47:24.993Z,9.9
2022-11-27T01:52:59.002Z,9.9
2022-11-27T01:58:47.998Z,9.9
2022-11-27T02:04:31.999Z,9.9
2022-11-27T02:10:08.160Z,9.9
2022-11-27T02:15:46.705Z,9.9
2022-11-27T02:21:34.946Z,9.9
2022-11-27T02:27:10.447Z,9.9
2022-11-27T02:32:51.762Z,9.9
2022-11-27T02:38:26.758Z,10
2022-11-27T02:44:04.645Z,10
2022-11-27T02:50:01.531Z,9.9
2022-11-27T02:55:44.588Z,9.9
2022-11-27T03:01:29.936Z,9.9
2022-11-27T03:07:08.437Z,9.9
2022-11-27T03:12:44.521Z,9.9
2022-11-27T03:18:19.732Z,9.9
2022-11-27T03:23:56.279Z,9.9
2022-11-27T03:29:34.858Z,9.9
2022-11-27T03:35:10.288Z,9.9
2022-11-27T03:40:47.279Z,9.9
2022-11-27T03:46:46.556Z,9.8
2022-11-27T03:52:22.178Z,9.8
2022-11-27T03:58:01.772Z,9.7
2022-11-27T04:03:41.906Z,9.8
2022-11-27T04:09:36.251Z,9.9
2022-11-27T04:15:26.145Z,9.9
2022-11-27T04:21:03.402Z,9.8
2022-11-27T04:26:39.492Z,9.8
2022-11-27T04:32:16.074Z,9.8
2022-11-27T04:37:56.436Z,9.8
2022-11-27T04:43:31.632Z,9.7
2022-11-27T04:49:35.151Z,9.7
2022-11-27T04:55:07.768Z,9.7
2022-11-27T05:00:45.605Z,9.7
2022-11-27T05:06:22.573Z,9.7
2022-11-27T05:12:00.748Z,9.7
2022-11-27T05:17:35.965Z,9.7
2022-11-27T05:23:29.443Z,9.6
2022-11-27T05:29:27.453Z,9.6
2022-11-27T05:36:10.522Z,9.6
2022-11-27T05:41:53.537Z,9.5
2022-11-27T05:47:51.366Z,9.5
2022-11-27T05:53:24.110Z,9.5
2022-11-27T05:59:00.153Z,9.4
2022-11-27T06:04:40.337Z,9.4
2022-11-27T06:10:17.509Z,9.4
2022-11-27T06:15:58.774Z,9.3
2022-11-27T06:21:34.479Z,9.3
2022-11-27T06:27:19.994Z,9.3
2022-11-27T06:32:55.763Z,9.3
2022-11-27T06:38:42.074Z,9.2
2022-11-27T06:44:17.653Z,9.2
2022-11-27T06:50:14.786Z,9.2
2022-11-27T06:55:59.520Z,9.2
2022-11-27T07:01:35.769Z,9.2
2022-11-27T07:07:12.927Z,9.2
2022-11-27T07:12:56.227Z,9.1
2022-11-27T07:18:31.908Z,8.1
2022-11-27T07:24:14.059Z,7.5
2022-11-27T07:29:50.447Z,7.3
2022-11-27T07:36:22.549Z,7.4
2022-11-27T07:42:00.070Z,7.5
2022-11-27T07:48:37.110Z,7.4
2022-11-27T07:54:10.225Z,7.6
2022-11-27T07:59:47.563Z,7.6
2022-11-27T08:05:29.385Z,7.6
2022-11-27T08:11:17.189Z,8.3
2022-11-27T08:17:13.830Z,8.6
2022-11-27T08:22:50.782Z,8.8
2022-11-27T08:28:26.306Z,9
2022-11-27T08:34:01.980Z,8.9
2022-11-27T08:39:37.521Z,9.4
2022-11-27T08:45:12.804Z,9.6
2022-11-27T08:50:54.670Z,9.9
2022-11-27T08:56:32.464Z,10.2
2022-11-27T09:02:10.508Z,10.3
2022-11-27T09:07:46.036Z,10.7
2022-11-27T09:13:23.205Z,10.7
2022-11-27T09:18:59.220Z,11.1
2022-11-27T09:24:35.885Z,11.3
2022-11-27T09:30:12.855Z,11.7
2022-11-27T09:35:53.365Z,12.4
2022-11-27T09:41:29.117Z,12.7
2022-11-27T09:47:05.155Z,13
2022-11-27T09:52:43.028Z,13.1
2022-11-27T09:58:29.745Z,13
2022-11-27T10:04:16.815Z,12.9
2022-11-27T10:09:53.147Z,13
2022-11-27T10:15:32.111Z,13.3
2022-11-27T10:21:08.817Z,14.2
2022-11-27T10:26:48.514Z,14.4
2022-11-27T10:32:57.996Z,14.2
2022-11-27T10:38:45.616Z,14.8
2022-11-27T10:44:38.178Z,15.5
2022-11-27T10:50:26.905Z,15.8
2022-11-27T10:56:16.692Z,15.8
2022-11-27T11:01:52.626Z,16.1
2022-11-27T11:07:29.973Z,16.3
2022-11-27T11:13:05.823Z,16.3
2022-11-27T11:18:46.215Z,16.5
2022-11-27T11:24:25.735Z,16.6
2022-11-27T11:30:03.422Z,16.7
2022-11-27T11:35:39.678Z,17.2
2022-11-27T11:41:15.811Z,17.2
2022-11-27T11:46:58.152Z,17.4
2022-11-27T11:52:51.768Z,17.7
2022-11-27T11:58:55.701Z,17.8
2022-11-27T12:04:34.758Z,18
2022-11-27T12:10:42.748Z,18.1
2022-11-27T12:16:18.296Z,17.7
2022-11-27T12:21:54.506Z,17.6
2022-11-27T12:27:30.677Z,17.4
2022-11-27T12:33:06.641Z,16.8
2022-11-27T12:38:41.900Z,16.6
2022-11-27T12:44:17.396Z,16.6
2022-11-27T12:49:53.085Z,16.7
2022-11-27T12:55:29.810Z,16.9
2022-11-27T13:01:06.330Z,17.2
2022-11-27T13:07:03.931Z,17.6
2022-11-27T13:12:45.159Z,17.8
2022-11-27T13:18:23.695Z,17.9
2022-11-27T13:24:45.459Z,18.1
2022-11-27T13:30:35.190Z,17.9
2022-11-27T13:36:21.879Z,17.8
2022-11-27T13:41:58.765Z,17.7
2022-11-27T13:47:35.355Z,17.7
2022-11-27T13:53:14.143Z,17.6
2022-11-27T13:58:49.792Z,17.9
2022-11-27T14:04:34.612Z,18.6
2022-11-27T14:10:10.028Z,19
2022-11-27T14:15:57.982Z,19.7
2022-11-27T14:21:34.629Z,18.8
2022-11-27T14:27:16.285Z,18
2022-11-27T14:32:57.177Z,17.3
2022-11-27T14:38:35.519Z,17.1
2022-11-27T14:44:12.522Z,16.9
2022-11-27T14:49:55.895Z,17.2
2022-11-27T14:55:35.164Z,17.3
2022-11-27T15:01:12.629Z,16.9
2022-11-27T15:06:52.125Z,16.6
2022-11-27T15:12:45.874Z,16.3
2022-11-27T15:18:26.204Z,16.1
2022-11-27T15:24:01.555Z,15.9
2022-11-27T15:29:37.608Z,15.6
2022-11-27T15:35:16.099Z,15.2
2022-11-27T15:40:52.639Z,14.8
2022-11-27T15:46:38.146Z,14.5
2022-11-27T15:52:17.288Z,14.1
2022-11-27T15:58:16.875Z,13.8
2022-11-27T16:04:00.537Z,13.6
2022-11-27T16:09:36.024Z,13.3
2022-11-27T16:15:11.522Z,13.1
2022-11-27T16:20:49.715Z,13
2022-11-27T16:26:36.822Z,12.8
2022-11-27T16:32:33.769Z,12.6
2022-11-27T16:38:10.775Z,12.3
2022-11-27T16:43:47.050Z,12.1
2022-11-27T16:49:50.863Z,12.1
2022-11-27T16:55:24.018Z,12
2022-11-27T17:01:08.456Z,12
2022-11-27T17:06:51.498Z,11.9
2022-11-27T17:12:31.408Z,12
2022-11-27T17:18:13.711Z,12.6
2022-11-27T17:24:11.746Z,12.7
2022-11-27T17:29:54.912Z,12.8
2022-11-27T17:35:30.251Z,12.8
2022-11-27T17:41:10.781Z,12.9
2022-11-27T17:46:50.871Z,12.8
2022-11-27T17:52:26.696Z,12.8
2022-11-27T17:58:04.311Z,12.8
2022-11-27T18:03:40.245Z,12.8
2022-11-27T18:09:15.619Z,12.8
2022-11-27T18:14:53.459Z,12.8
2022-11-27T18:20:37.234Z,12.8
2022-11-27T18:26:12.875Z,12.8
2022-11-27T18:31:48.205Z,12.7
2022-11-27T18:37:24.943Z,12.7
2022-11-27T18:42:59.858Z,12.7
2022-11-27T18:48:57.470Z,12.7
2022-11-27T18:54:31.064Z,12.6
2022-11-27T19:00:13.020Z,12.6
2022-11-27T19:05:48.433Z,12.5
2022-11-27T19:11:23.567Z,12.5
2022-11-27T19:17:07.712Z,12.6
2022-11-27T19:23:08.106Z,12.6
2022-11-27T19:28:43.869Z,12.5
2022-11-27T19:34:25.574Z,12.5
2022-11-27T19:40:17.271Z,12.5
2022-11-27T19:45:53.475Z,12.5
2022-11-27T19:51:30.462Z,12.5
2022-11-27T19:57:21.456Z,12.5
2022-11-27T20:03:45.042Z,12.5
2022-11-27T20:09:20.410Z,12.5
2022-11-27T20:14:56.010Z,12.6
2022-11-27T20:20:34.179Z,12.5
2022-11-27T20:26:10.898Z,12.5
2022-11-27T20:31:46.695Z,12.5
2022-11-27T20:37:23.649Z,12.5
2022-11-27T20:43:01.459Z,12.5
2022-11-27T20:49:04.674Z,12.5
2022-11-27T20:54:39.007Z,12.5
2022-11-27T21:00:18.694Z,12.6
2022-11-27T21:05:58.112Z,12.6
2022-11-27T21:11:42.941Z,12.6
2022-11-27T21:17:52.803Z,12.6
2022-11-27T21:23:31.215Z,12.6
2022-11-27T21:29:08.739Z,12.6
2022-11-27T21:34:47.255Z,12.6
2022-11-27T21:40:31.137Z,12.6
2022-11-27T21:46:29.100Z,12.6
2022-11-27T21:52:02.632Z,12.7
2022-11-27T21:57:37.775Z,12.7
2022-11-27T22:03:14.129Z,12.7
2022-11-27T22:08:50.316Z,12.7
2022-11-27T22:14:31.625Z,12.7
2022-11-27T22:20:07.844Z,12.7
2022-11-27T22:25:43.136Z,12.7
2022-11-27T22:31:25.947Z,12.7
2022-11-27T22:37:06.169Z,12.7
2022-11-27T22:42:41.510Z,12.7
2022-11-27T22:48:46.921Z,12.6
2022-11-27T22:54:21.188Z,12.6
2022-11-27T22:59:56.448Z,12.6
2022-11-27T23:05:31.759Z,12.6
2022-11-27T23:11:09.494Z,12.7
2022-11-27T23:16:46.080Z,12.7
2022-11-27T23:22:23.066Z,12.6
2022-11-27T23:27:59.272Z,12.6
2022-11-27T23:33:35.225Z,12.6
2022-11-27T23:39:10.698Z,12.6
2022-11-27T23:44:47.331Z,12.7
2022-11-27T23:50:25.623Z,12.7
2022-11-27T23:56:01.647Z,12.7
